sensor_id;sensor_type;location;lat;lon;timestamp;P1;durP1;ratioP1;P2;durP2;ratioP2
29916;SDS011;16786;49.466;11.068;2023-12-07T00:02:08;28.85;;;16.80;;
29916;SDS011;16786;49.466;11.068;2023-12-07T00:04:35;29.75;;;17.02;;
29916;SDS011;16786;49.466;11.068;2023-12-07T00:07:02;32.92;;;18.17;;
29916;SDS011;16786;49.466;11.068;2023-12-07T00:09:29;28.10;;;16.27;;
29916;SDS011;16786;49.466;11.068;2023-12-07T00:11:56;31.13;;;17.20;;
29916;SDS011;16786;49.466;11.068;2023-12-07T00:14:23;27.75;;;16.20;;
29916;SDS011;16786;49.466;11.068;2023-12-07T00:16:50;29.75;;;17.08;;
29916;SDS011;16786;49.466;11.068;2023-12-07T00:19:18;34.33;;;18.17;;
29916;SDS011;16786;49.466;11.068;2023-12-07T00:21:45;30.10;;;16.90;;
29916;SDS011;16786;49.466;11.068;2023-12-07T00:24:12;28.10;;;16.00;;
29916;SDS011;16786;49.466;11.068;2023-12-07T00:26:39;32.65;;;17.38;;
29916;SDS011;16786;49.466;11.068;2023-12-07T00:29:06;27.70;;;15.93;;
29916;SDS011;16786;49.466;11.068;2023-12-07T00:31:33;31.48;;;15.77;;
29916;SDS011;16786;49.466;11.068;2023-12-07T00:34:01;30.83;;;17.13;;
29916;SDS011;16786;49.466;11.068;2023-12-07T00:36:28;32.40;;;17.25;;
29916;SDS011;16786;49.466;11.068;2023-12-07T00:38:55;28.73;;;16.55;;
29916;SDS011;16786;49.466;11.068;2023-12-07T00:41:22;30.55;;;16.98;;
29916;SDS011;16786;49.466;11.068;2023-12-07T00:43:49;31.92;;;17.08;;
29916;SDS011;16786;49.466;11.068;2023-12-07T00:46:16;29.88;;;17.00;;
29916;SDS011;16786;49.466;11.068;2023-12-07T00:48:43;31.45;;;17.73;;
29916;SDS011;16786;49.466;11.068;2023-12-07T00:51:11;30.75;;;17.27;;
29916;SDS011;16786;49.466;11.068;2023-12-07T00:53:38;28.77;;;15.93;;
29916;SDS011;16786;49.466;11.068;2023-12-07T00:56:05;30.35;;;16.05;;
29916;SDS011;16786;49.466;11.068;2023-12-07T00:58:33;29.98;;;16.67;;
29916;SDS011;16786;49.466;11.068;2023-12-07T01:01:01;30.23;;;16.42;;
29916;SDS011;16786;49.466;11.068;2023-12-07T01:03:28;28.20;;;16.35;;
29916;SDS011;16786;49.466;11.068;2023-12-07T01:05:55;27.65;;;15.23;;
29916;SDS011;16786;49.466;11.068;2023-12-07T01:08:22;26.80;;;15.93;;
29916;SDS011;16786;49.466;11.068;2023-12-07T01:10:49;31.23;;;16.42;;
29916;SDS011;16786;49.466;11.068;2023-12-07T01:13:16;24.35;;;15.18;;
29916;SDS011;16786;49.466;11.068;2023-12-07T01:15:44;25.98;;;16.00;;
29916;SDS011;16786;49.466;11.068;2023-12-07T01:18:11;28.70;;;16.95;;
29916;SDS011;16786;49.466;11.068;2023-12-07T01:20:38;27.98;;;15.60;;
29916;SDS011;16786;49.466;11.068;2023-12-07T01:23:05;26.33;;;15.80;;
29916;SDS011;16786;49.466;11.068;2023-12-07T01:25:32;30.20;;;16.35;;
29916;SDS011;16786;49.466;11.068;2023-12-07T01:28:00;30.85;;;16.30;;
29916;SDS011;16786;49.466;11.068;2023-12-07T01:30:27;28.95;;;16.40;;
29916;SDS011;16786;49.466;11.068;2023-12-07T01:32:55;31.65;;;16.60;;
29916;SDS011;16786;49.466;11.068;2023-12-07T01:35:22;28.48;;;16.17;;
29916;SDS011;16786;49.466;11.068;2023-12-07T01:37:49;28.20;;;14.93;;
29916;SDS011;16786;49.466;11.068;2023-12-07T01:40:16;28.92;;;15.98;;
29916;SDS011;16786;49.466;11.068;2023-12-07T01:42:51;26.73;;;15.45;;
29916;SDS011;16786;49.466;11.068;2023-12-07T01:45:19;26.08;;;14.60;;
29916;SDS011;16786;49.466;11.068;2023-12-07T01:47:47;28.45;;;15.27;;
29916;SDS011;16786;49.466;11.068;2023-12-07T01:50:17;30.27;;;15.75;;
29916;SDS011;16786;49.466;11.068;2023-12-07T01:52:51;29.05;;;15.70;;
29916;SDS011;16786;49.466;11.068;2023-12-07T01:55:20;28.15;;;15.57;;
29916;SDS011;16786;49.466;11.068;2023-12-07T01:57:50;26.67;;;14.80;;
29916;SDS011;16786;49.466;11.068;2023-12-07T02:00:17;29.38;;;16.20;;
29916;SDS011;16786;49.466;11.068;2023-12-07T02:02:44;25.65;;;15.52;;
29916;SDS011;16786;49.466;11.068;2023-12-07T02:05:13;29.13;;;14.93;;
29916;SDS011;16786;49.466;11.068;2023-12-07T02:07:42;27.50;;;15.95;;
29916;SDS011;16786;49.466;11.068;2023-12-07T02:10:12;24.58;;;15.52;;
29916;SDS011;16786;49.466;11.068;2023-12-07T02:12:40;26.33;;;15.68;;
29916;SDS011;16786;49.466;11.068;2023-12-07T02:15:07;27.63;;;16.58;;
29916;SDS011;16786;49.466;11.068;2023-12-07T02:17:38;29.60;;;15.60;;
29916;SDS011;16786;49.466;11.068;2023-12-07T02:20:26;27.10;;;15.27;;
29916;SDS011;16786;49.466;11.068;2023-12-07T02:23:00;24.60;;;15.40;;
29916;SDS011;16786;49.466;11.068;2023-12-07T02:25:35;27.90;;;14.68;;
29916;SDS011;16786;49.466;11.068;2023-12-07T02:28:07;27.15;;;14.98;;
29916;SDS011;16786;49.466;11.068;2023-12-07T02:30:34;24.85;;;14.65;;
29916;SDS011;16786;49.466;11.068;2023-12-07T02:33:01;24.85;;;15.05;;
29916;SDS011;16786;49.466;11.068;2023-12-07T02:35:29;27.85;;;14.50;;
29916;SDS011;16786;49.466;11.068;2023-12-07T02:37:56;24.15;;;14.77;;
29916;SDS011;16786;49.466;11.068;2023-12-07T02:40:25;25.15;;;14.40;;
29916;SDS011;16786;49.466;11.068;2023-12-07T02:42:54;25.92;;;14.85;;
29916;SDS011;16786;49.466;11.068;2023-12-07T02:45:22;27.95;;;14.27;;
29916;SDS011;16786;49.466;11.068;2023-12-07T02:47:49;23.58;;;13.95;;
29916;SDS011;16786;49.466;11.068;2023-12-07T02:50:16;27.83;;;13.75;;
29916;SDS011;16786;49.466;11.068;2023-12-07T02:52:43;22.95;;;13.93;;
29916;SDS011;16786;49.466;11.068;2023-12-07T02:55:10;24.20;;;14.18;;
29916;SDS011;16786;49.466;11.068;2023-12-07T02:57:38;24.05;;;14.15;;
29916;SDS011;16786;49.466;11.068;2023-12-07T03:00:05;25.05;;;14.35;;
29916;SDS011;16786;49.466;11.068;2023-12-07T03:02:35;26.17;;;14.90;;
29916;SDS011;16786;49.466;11.068;2023-12-07T03:05:03;28.88;;;14.30;;
29916;SDS011;16786;49.466;11.068;2023-12-07T03:07:32;24.42;;;14.55;;
29916;SDS011;16786;49.466;11.068;2023-12-07T03:09:59;24.25;;;14.20;;
29916;SDS011;16786;49.466;11.068;2023-12-07T03:12:30;26.08;;;15.20;;
29916;SDS011;16786;49.466;11.068;2023-12-07T03:14:57;25.58;;;13.88;;
29916;SDS011;16786;49.466;11.068;2023-12-07T03:17:24;23.25;;;13.73;;
29916;SDS011;16786;49.466;11.068;2023-12-07T03:19:51;25.05;;;14.35;;
29916;SDS011;16786;49.466;11.068;2023-12-07T03:22:19;24.80;;;14.57;;
29916;SDS011;16786;49.466;11.068;2023-12-07T03:24:46;25.10;;;14.00;;
29916;SDS011;16786;49.466;11.068;2023-12-07T03:27:17;25.02;;;15.23;;
29916;SDS011;16786;49.466;11.068;2023-12-07T03:29:45;24.90;;;14.88;;
29916;SDS011;16786;49.466;11.068;2023-12-07T03:32:12;25.75;;;14.75;;
29916;SDS011;16786;49.466;11.068;2023-12-07T03:34:39;25.52;;;14.45;;
29916;SDS011;16786;49.466;11.068;2023-12-07T03:37:06;27.83;;;14.77;;
29916;SDS011;16786;49.466;11.068;2023-12-07T03:39:33;27.27;;;14.75;;
29916;SDS011;16786;49.466;11.068;2023-12-07T03:42:00;26.70;;;15.02;;
29916;SDS011;16786;49.466;11.068;2023-12-07T03:44:27;27.55;;;15.65;;
29916;SDS011;16786;49.466;11.068;2023-12-07T03:46:55;26.92;;;15.30;;
29916;SDS011;16786;49.466;11.068;2023-12-07T03:49:22;26.67;;;14.88;;
29916;SDS011;16786;49.466;11.068;2023-12-07T03:51:49;29.90;;;16.45;;
29916;SDS011;16786;49.466;11.068;2023-12-07T03:54:16;32.10;;;17.08;;
29916;SDS011;16786;49.466;11.068;2023-12-07T03:56:43;28.73;;;16.35;;
29916;SDS011;16786;49.466;11.068;2023-12-07T03:59:10;31.65;;;15.60;;
29916;SDS011;16786;49.466;11.068;2023-12-07T04:01:37;31.13;;;17.15;;
29916;SDS011;16786;49.466;11.068;2023-12-07T04:04:04;32.80;;;17.25;;
29916;SDS011;16786;49.466;11.068;2023-12-07T04:06:32;26.48;;;15.60;;
29916;SDS011;16786;49.466;11.068;2023-12-07T04:08:59;28.75;;;15.70;;
29916;SDS011;16786;49.466;11.068;2023-12-07T04:11:26;31.13;;;17.33;;
29916;SDS011;16786;49.466;11.068;2023-12-07T04:13:53;32.05;;;18.25;;
29916;SDS011;16786;49.466;11.068;2023-12-07T04:16:20;34.00;;;17.15;;
29916;SDS011;16786;49.466;11.068;2023-12-07T04:18:48;31.67;;;17.20;;
29916;SDS011;16786;49.466;11.068;2023-12-07T04:21:15;33.85;;;17.23;;
29916;SDS011;16786;49.466;11.068;2023-12-07T04:23:42;31.77;;;17.75;;
29916;SDS011;16786;49.466;11.068;2023-12-07T04:26:09;34.13;;;18.63;;
29916;SDS011;16786;49.466;11.068;2023-12-07T04:28:36;36.08;;;18.85;;
29916;SDS011;16786;49.466;11.068;2023-12-07T04:31:04;32.35;;;18.58;;
29916;SDS011;16786;49.466;11.068;2023-12-07T04:33:31;33.35;;;18.75;;
29916;SDS011;16786;49.466;11.068;2023-12-07T04:35:59;31.92;;;17.77;;
29916;SDS011;16786;49.466;11.068;2023-12-07T04:38:26;37.97;;;19.10;;
29916;SDS011;16786;49.466;11.068;2023-12-07T04:40:53;34.97;;;19.70;;
29916;SDS011;16786;49.466;11.068;2023-12-07T04:43:20;32.67;;;18.83;;
29916;SDS011;16786;49.466;11.068;2023-12-07T04:45:47;37.17;;;19.52;;
29916;SDS011;16786;49.466;11.068;2023-12-07T04:48:15;37.90;;;20.08;;
29916;SDS011;16786;49.466;11.068;2023-12-07T04:50:42;37.35;;;20.17;;
29916;SDS011;16786;49.466;11.068;2023-12-07T04:53:09;42.33;;;20.17;;
29916;SDS011;16786;49.466;11.068;2023-12-07T04:55:36;37.47;;;20.40;;
29916;SDS011;16786;49.466;11.068;2023-12-07T04:58:04;38.10;;;20.23;;
29916;SDS011;16786;49.466;11.068;2023-12-07T05:00:31;40.80;;;19.92;;
29916;SDS011;16786;49.466;11.068;2023-12-07T05:02:58;37.47;;;19.98;;
29916;SDS011;16786;49.466;11.068;2023-12-07T05:05:25;38.60;;;21.10;;
29916;SDS011;16786;49.466;11.068;2023-12-07T05:07:53;39.28;;;20.52;;
29916;SDS011;16786;49.466;11.068;2023-12-07T05:10:20;36.38;;;19.35;;
29916;SDS011;16786;49.466;11.068;2023-12-07T05:12:47;39.20;;;21.02;;
29916;SDS011;16786;49.466;11.068;2023-12-07T05:15:15;35.20;;;20.45;;
29916;SDS011;16786;49.466;11.068;2023-12-07T05:17:42;41.65;;;21.30;;
29916;SDS011;16786;49.466;11.068;2023-12-07T05:20:09;38.53;;;22.23;;
29916;SDS011;16786;49.466;11.068;2023-12-07T05:22:39;43.28;;;21.25;;
29916;SDS011;16786;49.466;11.068;2023-12-07T05:25:06;36.85;;;20.10;;
29916;SDS011;16786;49.466;11.068;2023-12-07T05:27:33;43.35;;;23.05;;
29916;SDS011;16786;49.466;11.068;2023-12-07T05:30:01;39.33;;;20.67;;
29916;SDS011;16786;49.466;11.068;2023-12-07T05:32:29;42.00;;;22.75;;
29916;SDS011;16786;49.466;11.068;2023-12-07T05:34:56;42.65;;;22.40;;
29916;SDS011;16786;49.466;11.068;2023-12-07T05:37:23;46.83;;;24.13;;
29916;SDS011;16786;49.466;11.068;2023-12-07T05:39:50;47.35;;;24.35;;
29916;SDS011;16786;49.466;11.068;2023-12-07T05:42:17;48.08;;;25.08;;
29916;SDS011;16786;49.466;11.068;2023-12-07T05:44:45;49.90;;;25.67;;
29916;SDS011;16786;49.466;11.068;2023-12-07T05:47:12;44.63;;;24.48;;
29916;SDS011;16786;49.466;11.068;2023-12-07T05:49:39;49.03;;;23.92;;
29916;SDS011;16786;49.466;11.068;2023-12-07T05:52:06;49.42;;;25.85;;
29916;SDS011;16786;49.466;11.068;2023-12-07T05:54:33;49.05;;;24.20;;
29916;SDS011;16786;49.466;11.068;2023-12-07T05:57:01;52.10;;;25.20;;
29916;SDS011;16786;49.466;11.068;2023-12-07T05:59:28;49.03;;;25.08;;
29916;SDS011;16786;49.466;11.068;2023-12-07T06:01:55;48.13;;;24.25;;
29916;SDS011;16786;49.466;11.068;2023-12-07T06:04:23;51.00;;;23.90;;
29916;SDS011;16786;49.466;11.068;2023-12-07T06:06:50;48.25;;;24.55;;
29916;SDS011;16786;49.466;11.068;2023-12-07T06:09:17;48.60;;;24.95;;
29916;SDS011;16786;49.466;11.068;2023-12-07T06:11:46;40.92;;;23.42;;
29916;SDS011;16786;49.466;11.068;2023-12-07T06:14:13;44.45;;;22.77;;
29916;SDS011;16786;49.466;11.068;2023-12-07T06:16:40;48.25;;;24.63;;
29916;SDS011;16786;49.466;11.068;2023-12-07T06:19:07;50.50;;;25.13;;
29916;SDS011;16786;49.466;11.068;2023-12-07T06:21:35;54.33;;;27.73;;
29916;SDS011;16786;49.466;11.068;2023-12-07T06:24:02;49.35;;;25.33;;
29916;SDS011;16786;49.466;11.068;2023-12-07T06:26:29;50.35;;;24.55;;
29916;SDS011;16786;49.466;11.068;2023-12-07T06:28:56;48.38;;;24.40;;
29916;SDS011;16786;49.466;11.068;2023-12-07T06:31:23;54.17;;;26.10;;
29916;SDS011;16786;49.466;11.068;2023-12-07T06:33:50;50.95;;;26.83;;
29916;SDS011;16786;49.466;11.068;2023-12-07T06:36:18;56.42;;;28.05;;
29916;SDS011;16786;49.466;11.068;2023-12-07T06:38:49;60.40;;;28.80;;
29916;SDS011;16786;49.466;11.068;2023-12-07T06:41:16;56.00;;;27.33;;
29916;SDS011;16786;49.466;11.068;2023-12-07T06:43:44;58.80;;;28.08;;
29916;SDS011;16786;49.466;11.068;2023-12-07T06:46:12;60.95;;;27.65;;
29916;SDS011;16786;49.466;11.068;2023-12-07T06:48:40;55.70;;;27.17;;
29916;SDS011;16786;49.466;11.068;2023-12-07T06:51:08;56.92;;;28.25;;
29916;SDS011;16786;49.466;11.068;2023-12-07T06:53:35;59.13;;;28.35;;
29916;SDS011;16786;49.466;11.068;2023-12-07T06:56:02;57.30;;;29.75;;
29916;SDS011;16786;49.466;11.068;2023-12-07T06:58:29;55.97;;;27.25;;
29916;SDS011;16786;49.466;11.068;2023-12-07T07:00:56;56.63;;;29.15;;
29916;SDS011;16786;49.466;11.068;2023-12-07T07:03:24;60.25;;;29.23;;
29916;SDS011;16786;49.466;11.068;2023-12-07T07:05:51;64.85;;;29.42;;
29916;SDS011;16786;49.466;11.068;2023-12-07T07:08:19;60.40;;;28.13;;
29916;SDS011;16786;49.466;11.068;2023-12-07T07:10:46;60.92;;;29.48;;
29916;SDS011;16786;49.466;11.068;2023-12-07T07:13:14;62.10;;;28.80;;
29916;SDS011;16786;49.466;11.068;2023-12-07T07:15:43;58.80;;;27.50;;
29916;SDS011;16786;49.466;11.068;2023-12-07T07:18:11;64.95;;;29.58;;
29916;SDS011;16786;49.466;11.068;2023-12-07T07:20:38;64.55;;;29.48;;
29916;SDS011;16786;49.466;11.068;2023-12-07T07:23:07;58.47;;;28.00;;
29916;SDS011;16786;49.466;11.068;2023-12-07T07:25:35;56.53;;;29.15;;
29916;SDS011;16786;49.466;11.068;2023-12-07T07:28:02;62.60;;;29.42;;
29916;SDS011;16786;49.466;11.068;2023-12-07T07:30:30;58.70;;;29.95;;
29916;SDS011;16786;49.466;11.068;2023-12-07T07:32:57;59.80;;;30.20;;
29916;SDS011;16786;49.466;11.068;2023-12-07T07:35:24;66.05;;;30.90;;
29916;SDS011;16786;49.466;11.068;2023-12-07T07:37:54;65.80;;;30.10;;
29916;SDS011;16786;49.466;11.068;2023-12-07T07:40:21;60.10;;;30.67;;
29916;SDS011;16786;49.466;11.068;2023-12-07T07:42:49;62.42;;;30.83;;
29916;SDS011;16786;49.466;11.068;2023-12-07T07:45:16;57.05;;;28.75;;
29916;SDS011;16786;49.466;11.068;2023-12-07T07:47:43;66.93;;;30.63;;
29916;SDS011;16786;49.466;11.068;2023-12-07T07:50:11;68.43;;;31.35;;
29916;SDS011;16786;49.466;11.068;2023-12-07T07:52:38;60.97;;;30.73;;
29916;SDS011;16786;49.466;11.068;2023-12-07T07:55:10;52.72;;;28.13;;
29916;SDS011;16786;49.466;11.068;2023-12-07T07:57:38;59.60;;;29.90;;
29916;SDS011;16786;49.466;11.068;2023-12-07T08:00:05;54.03;;;28.35;;
29916;SDS011;16786;49.466;11.068;2023-12-07T08:02:35;59.30;;;28.33;;
29916;SDS011;16786;49.466;11.068;2023-12-07T08:05:03;51.17;;;26.80;;
29916;SDS011;16786;49.466;11.068;2023-12-07T08:07:31;54.60;;;28.02;;
29916;SDS011;16786;49.466;11.068;2023-12-07T08:09:58;51.58;;;27.55;;
29916;SDS011;16786;49.466;11.068;2023-12-07T08:12:25;51.00;;;27.27;;
29916;SDS011;16786;49.466;11.068;2023-12-07T08:14:52;50.40;;;27.08;;
29916;SDS011;16786;49.466;11.068;2023-12-07T08:17:20;50.67;;;26.98;;
29916;SDS011;16786;49.466;11.068;2023-12-07T08:19:48;50.85;;;26.77;;
29916;SDS011;16786;49.466;11.068;2023-12-07T08:22:15;51.20;;;27.20;;
29916;SDS011;16786;49.466;11.068;2023-12-07T08:24:43;47.90;;;24.33;;
29916;SDS011;16786;49.466;11.068;2023-12-07T08:27:12;52.90;;;26.70;;
29916;SDS011;16786;49.466;11.068;2023-12-07T08:29:39;46.28;;;24.77;;
29916;SDS011;16786;49.466;11.068;2023-12-07T08:32:06;40.92;;;23.35;;
29916;SDS011;16786;49.466;11.068;2023-12-07T08:34:33;46.60;;;25.08;;
29916;SDS011;16786;49.466;11.068;2023-12-07T08:37:00;46.67;;;23.60;;
29916;SDS011;16786;49.466;11.068;2023-12-07T08:39:29;49.83;;;25.67;;
29916;SDS011;16786;49.466;11.068;2023-12-07T08:41:57;48.28;;;25.13;;
29916;SDS011;16786;49.466;11.068;2023-12-07T08:44:24;47.00;;;25.05;;
29916;SDS011;16786;49.466;11.068;2023-12-07T08:46:52;47.17;;;25.17;;
29916;SDS011;16786;49.466;11.068;2023-12-07T08:49:21;42.95;;;24.60;;
29916;SDS011;16786;49.466;11.068;2023-12-07T08:51:48;50.85;;;25.77;;
29916;SDS011;16786;49.466;11.068;2023-12-07T08:54:35;47.17;;;25.65;;
29916;SDS011;16786;49.466;11.068;2023-12-07T08:57:02;41.30;;;23.92;;
29916;SDS011;16786;49.466;11.068;2023-12-07T08:59:30;49.10;;;25.17;;
29916;SDS011;16786;49.466;11.068;2023-12-07T09:01:57;48.63;;;25.05;;
29916;SDS011;16786;49.466;11.068;2023-12-07T09:04:24;42.58;;;23.98;;
29916;SDS011;16786;49.466;11.068;2023-12-07T09:06:51;45.35;;;24.83;;
29916;SDS011;16786;49.466;11.068;2023-12-07T09:09:19;45.78;;;25.05;;
29916;SDS011;16786;49.466;11.068;2023-12-07T09:11:47;45.33;;;24.20;;
29916;SDS011;16786;49.466;11.068;2023-12-07T09:14:14;41.40;;;23.55;;
29916;SDS011;16786;49.466;11.068;2023-12-07T09:16:45;41.00;;;22.85;;
29916;SDS011;16786;49.466;11.068;2023-12-07T09:19:12;38.85;;;22.67;;
29916;SDS011;16786;49.466;11.068;2023-12-07T09:21:40;40.13;;;23.77;;
29916;SDS011;16786;49.466;11.068;2023-12-07T09:24:08;41.72;;;21.90;;
29916;SDS011;16786;49.466;11.068;2023-12-07T09:26:35;38.63;;;22.42;;
29916;SDS011;16786;49.466;11.068;2023-12-07T09:29:03;41.72;;;22.98;;
29916;SDS011;16786;49.466;11.068;2023-12-07T09:31:30;38.50;;;22.35;;
29916;SDS011;16786;49.466;11.068;2023-12-07T09:33:58;38.78;;;22.17;;
29916;SDS011;16786;49.466;11.068;2023-12-07T09:36:38;37.00;;;22.02;;
29916;SDS011;16786;49.466;11.068;2023-12-07T09:39:05;34.90;;;20.33;;
29916;SDS011;16786;49.466;11.068;2023-12-07T09:41:32;38.75;;;21.80;;
29916;SDS011;16786;49.466;11.068;2023-12-07T09:44:00;47.20;;;25.08;;
29916;SDS011;16786;49.466;11.068;2023-12-07T09:46:28;42.67;;;25.23;;
29916;SDS011;16786;49.466;11.068;2023-12-07T09:48:56;37.88;;;22.10;;
29916;SDS011;16786;49.466;11.068;2023-12-07T09:51:24;34.83;;;21.70;;
29916;SDS011;16786;49.466;11.068;2023-12-07T09:53:55;36.15;;;21.38;;
29916;SDS011;16786;49.466;11.068;2023-12-07T09:56:22;34.63;;;21.15;;
29916;SDS011;16786;49.466;11.068;2023-12-07T09:58:49;32.95;;;20.77;;
29916;SDS011;16786;49.466;11.068;2023-12-07T10:01:16;36.45;;;22.17;;
29916;SDS011;16786;49.466;11.068;2023-12-07T10:03:43;38.60;;;21.55;;
29916;SDS011;16786;49.466;11.068;2023-12-07T10:06:14;40.53;;;22.60;;
29916;SDS011;16786;49.466;11.068;2023-12-07T10:08:41;35.25;;;21.23;;
29916;SDS011;16786;49.466;11.068;2023-12-07T10:11:10;36.65;;;21.08;;
29916;SDS011;16786;49.466;11.068;2023-12-07T10:13:42;33.33;;;20.50;;
29916;SDS011;16786;49.466;11.068;2023-12-07T10:16:13;36.75;;;20.77;;
29916;SDS011;16786;49.466;11.068;2023-12-07T10:18:42;33.97;;;21.23;;
29916;SDS011;16786;49.466;11.068;2023-12-07T10:21:12;31.50;;;19.75;;
29916;SDS011;16786;49.466;11.068;2023-12-07T10:23:40;37.92;;;21.63;;
29916;SDS011;16786;49.466;11.068;2023-12-07T10:26:15;67.07;;;37.95;;
29916;SDS011;16786;49.466;11.068;2023-12-07T10:28:44;38.00;;;20.60;;
29916;SDS011;16786;49.466;11.068;2023-12-07T10:31:12;35.22;;;19.33;;
29916;SDS011;16786;49.466;11.068;2023-12-07T10:33:49;33.38;;;20.15;;
29916;SDS011;16786;49.466;11.068;2023-12-07T10:36:17;36.00;;;20.38;;
29916;SDS011;16786;49.466;11.068;2023-12-07T10:38:44;35.72;;;20.67;;
29916;SDS011;16786;49.466;11.068;2023-12-07T10:41:13;32.90;;;20.05;;
29916;SDS011;16786;49.466;11.068;2023-12-07T10:43:43;33.40;;;19.45;;
29916;SDS011;16786;49.466;11.068;2023-12-07T10:46:14;31.05;;;19.85;;
29916;SDS011;16786;49.466;11.068;2023-12-07T10:48:45;33.88;;;19.85;;
29916;SDS011;16786;49.466;11.068;2023-12-07T10:51:20;33.67;;;19.23;;
29916;SDS011;16786;49.466;11.068;2023-12-07T10:53:56;33.60;;;18.98;;
29916;SDS011;16786;49.466;11.068;2023-12-07T10:56:28;32.58;;;19.77;;
29916;SDS011;16786;49.466;11.068;2023-12-07T10:59:03;33.22;;;20.02;;
29916;SDS011;16786;49.466;11.068;2023-12-07T11:01:30;36.60;;;21.67;;
29916;SDS011;16786;49.466;11.068;2023-12-07T11:03:59;35.75;;;20.88;;
29916;SDS011;16786;49.466;11.068;2023-12-07T11:06:27;34.60;;;20.02;;
29916;SDS011;16786;49.466;11.068;2023-12-07T11:08:59;32.15;;;19.23;;
29916;SDS011;16786;49.466;11.068;2023-12-07T11:11:43;32.13;;;18.48;;
29916;SDS011;16786;49.466;11.068;2023-12-07T11:14:15;29.13;;;17.90;;
29916;SDS011;16786;49.466;11.068;2023-12-07T11:16:45;32.45;;;19.70;;
29916;SDS011;16786;49.466;11.068;2023-12-07T11:22:04;31.10;;;19.52;;
29916;SDS011;16786;49.466;11.068;2023-12-07T11:24:33;32.85;;;19.42;;
29916;SDS011;16786;49.466;11.068;2023-12-07T11:27:02;30.52;;;17.60;;
29916;SDS011;16786;49.466;11.068;2023-12-07T11:29:30;31.98;;;20.10;;
29916;SDS011;16786;49.466;11.068;2023-12-07T11:32:01;34.20;;;19.70;;
29916;SDS011;16786;49.466;11.068;2023-12-07T11:34:45;36.22;;;20.30;;
29916;SDS011;16786;49.466;11.068;2023-12-07T11:37:14;31.05;;;19.30;;
29916;SDS011;16786;49.466;11.068;2023-12-07T11:44:41;31.48;;;19.08;;
29916;SDS011;16786;49.466;11.068;2023-12-07T11:47:12;35.25;;;18.95;;
29916;SDS011;16786;49.466;11.068;2023-12-07T11:52:14;29.60;;;17.85;;
29916;SDS011;16786;49.466;11.068;2023-12-07T11:54:46;30.60;;;18.35;;
29916;SDS011;16786;49.466;11.068;2023-12-07T11:57:14;30.83;;;17.52;;
29916;SDS011;16786;49.466;11.068;2023-12-07T11:59:45;31.52;;;19.13;;
29916;SDS011;16786;49.466;11.068;2023-12-07T12:02:15;33.50;;;19.58;;
29916;SDS011;16786;49.466;11.068;2023-12-07T12:04:43;30.80;;;19.10;;
29916;SDS011;16786;49.466;11.068;2023-12-07T12:07:11;32.45;;;19.45;;
29916;SDS011;16786;49.466;11.068;2023-12-07T12:09:38;28.23;;;17.90;;
29916;SDS011;16786;49.466;11.068;2023-12-07T12:12:06;30.30;;;19.17;;
29916;SDS011;16786;49.466;11.068;2023-12-07T12:14:33;33.83;;;20.13;;
29916;SDS011;16786;49.466;11.068;2023-12-07T12:17:01;27.35;;;18.45;;
29916;SDS011;16786;49.466;11.068;2023-12-07T12:19:28;33.58;;;19.80;;
29916;SDS011;16786;49.466;11.068;2023-12-07T12:22:03;32.10;;;20.15;;
29916;SDS011;16786;49.466;11.068;2023-12-07T12:24:34;29.77;;;17.42;;
29916;SDS011;16786;49.466;11.068;2023-12-07T12:27:04;28.75;;;17.65;;
29916;SDS011;16786;49.466;11.068;2023-12-07T12:29:32;27.55;;;17.30;;
29916;SDS011;16786;49.466;11.068;2023-12-07T12:32:04;28.10;;;17.50;;
29916;SDS011;16786;49.466;11.068;2023-12-07T12:34:33;26.15;;;16.92;;
29916;SDS011;16786;49.466;11.068;2023-12-07T12:37:02;26.02;;;15.88;;
29916;SDS011;16786;49.466;11.068;2023-12-07T12:39:33;20.80;;;14.65;;
29916;SDS011;16786;49.466;11.068;2023-12-07T12:42:02;23.50;;;14.60;;
29916;SDS011;16786;49.466;11.068;2023-12-07T12:44:30;21.13;;;14.30;;
29916;SDS011;16786;49.466;11.068;2023-12-07T12:47:07;19.25;;;12.77;;
29916;SDS011;16786;49.466;11.068;2023-12-07T12:49:39;26.10;;;14.95;;
29916;SDS011;16786;49.466;11.068;2023-12-07T12:52:10;19.45;;;13.02;;
29916;SDS011;16786;49.466;11.068;2023-12-07T12:54:39;21.33;;;13.15;;
29916;SDS011;16786;49.466;11.068;2023-12-07T12:57:09;20.13;;;13.43;;
29916;SDS011;16786;49.466;11.068;2023-12-07T12:59:36;19.33;;;13.82;;
29916;SDS011;16786;49.466;11.068;2023-12-07T13:02:04;19.33;;;14.05;;
29916;SDS011;16786;49.466;11.068;2023-12-07T13:04:31;21.83;;;15.15;;
29916;SDS011;16786;49.466;11.068;2023-12-07T13:07:07;22.98;;;14.95;;
29916;SDS011;16786;49.466;11.068;2023-12-07T13:09:35;22.77;;;16.02;;
29916;SDS011;16786;49.466;11.068;2023-12-07T13:12:02;21.48;;;15.63;;
29916;SDS011;16786;49.466;11.068;2023-12-07T13:14:32;19.05;;;15.02;;
29916;SDS011;16786;49.466;11.068;2023-12-07T13:17:05;23.05;;;16.08;;
29916;SDS011;16786;49.466;11.068;2023-12-07T13:19:34;22.70;;;17.55;;
29916;SDS011;16786;49.466;11.068;2023-12-07T13:22:02;20.20;;;14.90;;
29916;SDS011;16786;49.466;11.068;2023-12-07T13:24:30;24.83;;;15.82;;
29916;SDS011;16786;49.466;11.068;2023-12-07T13:26:57;22.27;;;14.50;;
29916;SDS011;16786;49.466;11.068;2023-12-07T13:29:27;21.10;;;15.32;;
29916;SDS011;16786;49.466;11.068;2023-12-07T13:32:03;20.98;;;14.00;;
29916;SDS011;16786;49.466;11.068;2023-12-07T13:34:30;18.70;;;12.90;;
29916;SDS011;16786;49.466;11.068;2023-12-07T13:36:58;16.08;;;12.95;;
29916;SDS011;16786;49.466;11.068;2023-12-07T13:39:25;16.83;;;11.60;;
29916;SDS011;16786;49.466;11.068;2023-12-07T13:44:26;15.93;;;12.18;;
29916;SDS011;16786;49.466;11.068;2023-12-07T13:46:55;18.30;;;13.50;;
29916;SDS011;16786;49.466;11.068;2023-12-07T13:49:26;21.02;;;12.80;;
29916;SDS011;16786;49.466;11.068;2023-12-07T13:52:02;15.40;;;11.73;;
29916;SDS011;16786;49.466;11.068;2023-12-07T13:54:35;14.07;;;11.75;;
29916;SDS011;16786;49.466;11.068;2023-12-07T13:57:06;16.85;;;13.27;;
29916;SDS011;16786;49.466;11.068;2023-12-07T13:59:35;16.02;;;13.20;;
29916;SDS011;16786;49.466;11.068;2023-12-07T14:02:03;17.45;;;13.00;;
29916;SDS011;16786;49.466;11.068;2023-12-07T14:04:32;15.82;;;13.18;;
29916;SDS011;16786;49.466;11.068;2023-12-07T14:07:13;14.52;;;12.60;;
29916;SDS011;16786;49.466;11.068;2023-12-07T14:09:42;14.90;;;12.88;;
29916;SDS011;16786;49.466;11.068;2023-12-07T14:12:23;13.43;;;12.02;;
29916;SDS011;16786;49.466;11.068;2023-12-07T14:14:51;13.70;;;12.20;;
29916;SDS011;16786;49.466;11.068;2023-12-07T14:17:18;14.68;;;13.05;;
29916;SDS011;16786;49.466;11.068;2023-12-07T14:19:47;16.55;;;13.18;;
29916;SDS011;16786;49.466;11.068;2023-12-07T14:22:16;14.05;;;12.55;;
29916;SDS011;16786;49.466;11.068;2023-12-07T14:24:43;16.27;;;12.98;;
29916;SDS011;16786;49.466;11.068;2023-12-07T14:27:11;15.13;;;13.55;;
29916;SDS011;16786;49.466;11.068;2023-12-07T14:29:38;16.42;;;13.93;;